sensor_id;sensor_type;location;lat;lon;timestamp;pressure;altitude;pressure_sealevel;temperature;humidity
69411;BME280;56604;48.652;9.194;2023-04-08T00:00:40;96465.72;;;7.27;91.34
69411;BME280;56604;48.652;9.194;2023-04-08T00:03:05;96467.09;;;7.30;91.17
69411;BME280;56604;48.652;9.194;2023-04-08T00:05:32;96468.47;;;7.32;91.39
69411;BME280;56604;48.652;9.194;2023-04-08T00:07:58;96468.81;;;7.36;91.05
69411;BME280;56604;48.652;9.194;2023-04-08T00:10:23;96464.94;;;7.38;91.00
69411;BME280;56604;48.652;9.194;2023-04-08T00:12:50;96466.84;;;7.31;91.10
69411;BME280;56604;48.652;9.194;2023-04-08T00:15:15;96472.00;;;7.38;90.51
69411;BME280;56604;48.652;9.194;2023-04-08T00:17:41;96468.81;;;7.36;91.10
69411;BME280;56604;48.652;9.194;2023-04-08T00:20:06;96467.28;;;7.28;91.31
69411;BME280;56604;48.652;9.194;2023-04-08T00:22:32;96471.28;;;7.31;90.99
69411;BME280;56604;48.652;9.194;2023-04-08T00:24:57;96472.31;;;7.30;90.96
69411;BME280;56604;48.652;9.194;2023-04-08T00:27:22;96467.66;;;7.32;90.82
69411;BME280;56604;48.652;9.194;2023-04-08T00:29:49;96470.03;;;7.33;90.95
69411;BME280;56604;48.652;9.194;2023-04-08T00:32:15;96465.06;;;7.32;91.53
69411;BME280;56604;48.652;9.194;2023-04-08T00:34:40;96474.47;;;7.33;90.93
69411;BME280;56604;48.652;9.194;2023-04-08T00:37:06;96464.91;;;7.27;91.14
69411;BME280;56604;48.652;9.194;2023-04-08T00:39:31;96468.97;;;7.22;91.20
69411;BME280;56604;48.652;9.194;2023-04-08T00:41:56;96462.16;;;7.21;90.91
69411;BME280;56604;48.652;9.194;2023-04-08T00:44:22;96469.31;;;7.14;91.04
69411;BME280;56604;48.652;9.194;2023-04-08T00:46:47;96468.97;;;7.22;91.54
69411;BME280;56604;48.652;9.194;2023-04-08T00:49:13;96473.19;;;7.24;91.06
69411;BME280;56604;48.652;9.194;2023-04-08T00:51:38;96476.81;;;7.22;91.45
69411;BME280;56604;48.652;9.194;2023-04-08T00:54:03;96481.84;;;7.24;90.79
69411;BME280;56604;48.652;9.194;2023-04-08T00:56:30;96477.41;;;7.25;90.75
69411;BME280;56604;48.652;9.194;2023-04-08T00:58:58;96482.88;;;7.23;90.70
69411;BME280;56604;48.652;9.194;2023-04-08T01:01:32;96490.34;;;7.19;90.74
69411;BME280;56604;48.652;9.194;2023-04-08T01:06:52;96479.09;;;7.19;90.70
69411;BME280;56604;48.652;9.194;2023-04-08T01:09:22;96476.72;;;7.17;90.66
69411;BME280;56604;48.652;9.194;2023-04-08T01:11:50;96483.44;;;7.25;90.60
69411;BME280;56604;48.652;9.194;2023-04-08T01:14:20;96491.41;;;7.30;90.37
69411;BME280;56604;48.652;9.194;2023-04-08T01:16:47;96488.75;;;7.18;90.26
69411;BME280;56604;48.652;9.194;2023-04-08T01:19:28;96482.78;;;7.11;90.80
69411;BME280;56604;48.652;9.194;2023-04-08T01:22:01;96487.91;;;7.06;90.84
69411;BME280;56604;48.652;9.194;2023-04-08T01:24:30;96484.13;;;7.02;91.88
69411;BME280;56604;48.652;9.194;2023-04-08T01:26:59;96484.84;;;7.09;91.35
69411;BME280;56604;48.652;9.194;2023-04-08T01:29:26;96490.78;;;7.16;90.76
69411;BME280;56604;48.652;9.194;2023-04-08T01:31:53;96482.78;;;7.11;91.39
69411;BME280;56604;48.652;9.194;2023-04-08T01:34:19;96481.34;;;7.15;91.05
69411;BME280;56604;48.652;9.194;2023-04-08T01:36:45;96481.66;;;7.07;91.30
69411;BME280;56604;48.652;9.194;2023-04-08T01:39:13;96485.34;;;7.18;91.13
69411;BME280;56604;48.652;9.194;2023-04-08T01:41:39;96480.84;;;7.07;90.88
69411;BME280;56604;48.652;9.194;2023-04-08T01:44:05;96484.13;;;7.02;91.37
69411;BME280;56604;48.652;9.194;2023-04-08T01:46:31;96480.66;;;6.90;91.47
69411;BME280;56604;48.652;9.194;2023-04-08T01:48:58;96485.00;;;6.96;91.63
69411;BME280;56604;48.652;9.194;2023-04-08T01:51:23;96477.31;;;7.01;91.60
69411;BME280;56604;48.652;9.194;2023-04-08T01:53:50;96484.56;;;6.99;90.91
69411;BME280;56604;48.652;9.194;2023-04-08T01:56:16;96480.66;;;6.90;91.59
69411;BME280;56604;48.652;9.194;2023-04-08T01:58:46;96477.81;;;6.91;91.73
69411;BME280;56604;48.652;9.194;2023-04-08T02:01:16;96475.00;;;6.93;91.15
69411;BME280;56604;48.652;9.194;2023-04-08T02:03:44;96472.22;;;6.88;91.80
69411;BME280;56604;48.652;9.194;2023-04-08T02:06:10;96477.81;;;6.91;91.71
69411;BME280;56604;48.652;9.194;2023-04-08T02:08:36;96478.94;;;6.84;91.73
69411;BME280;56604;48.652;9.194;2023-04-08T02:11:02;96474.69;;;6.83;91.44
69411;BME280;56604;48.652;9.194;2023-04-08T02:13:31;96472.22;;;6.88;90.81
69411;BME280;56604;48.652;9.194;2023-04-08T02:16:03;96480.31;;;6.86;91.19
69411;BME280;56604;48.652;9.194;2023-04-08T02:18:30;96479.72;;;6.84;91.30
69411;BME280;56604;48.652;9.194;2023-04-08T02:21:03;96480.88;;;6.88;90.91
69411;BME280;56604;48.652;9.194;2023-04-08T02:23:32;96484.72;;;6.86;90.89
69411;BME280;56604;48.652;9.194;2023-04-08T02:26:01;96482.69;;;6.88;91.14
69411;BME280;56604;48.652;9.194;2023-04-08T02:28:29;96485.16;;;6.83;90.48
69411;BME280;56604;48.652;9.194;2023-04-08T02:30:56;96491.41;;;6.82;90.37
69411;BME280;56604;48.652;9.194;2023-04-08T02:33:22;96487.22;;;6.81;90.72
69411;BME280;56604;48.652;9.194;2023-04-08T02:35:51;96481.97;;;6.81;90.31
69411;BME280;56604;48.652;9.194;2023-04-08T02:38:19;96484.59;;;6.81;90.42
69411;BME280;56604;48.652;9.194;2023-04-08T02:40:44;96489.22;;;6.79;90.66
69411;BME280;56604;48.652;9.194;2023-04-08T02:43:10;96487.66;;;6.78;90.48
69411;BME280;56604;48.652;9.194;2023-04-08T02:45:41;96489.31;;;6.72;90.32
69411;BME280;56604;48.652;9.194;2023-04-08T02:48:06;96491.25;;;6.76;90.13
69411;BME280;56604;48.652;9.194;2023-04-08T02:50:31;96479.22;;;6.75;90.59
69411;BME280;56604;48.652;9.194;2023-04-08T02:52:57;96485.88;;;6.71;89.94
69411;BME280;56604;48.652;9.194;2023-04-08T02:55:22;96487.06;;;6.75;90.13
69411;BME280;56604;48.652;9.194;2023-04-08T02:57:48;96482.41;;;6.78;90.20
69411;BME280;56604;48.652;9.194;2023-04-08T03:00:14;96486.03;;;6.76;90.21
69411;BME280;56604;48.652;9.194;2023-04-08T03:02:39;96487.66;;;6.78;90.17
69411;BME280;56604;48.652;9.194;2023-04-08T03:05:05;96488.09;;;6.74;90.23
69411;BME280;56604;48.652;9.194;2023-04-08T03:07:31;96489.66;;;6.75;90.33
69411;BME280;56604;48.652;9.194;2023-04-08T03:09:56;96493.16;;;6.69;90.06
69411;BME280;56604;48.652;9.194;2023-04-08T03:12:22;96487.25;;;6.74;90.57
69411;BME280;56604;48.652;9.194;2023-04-08T03:14:48;96489.88;;;6.74;90.15
69411;BME280;56604;48.652;9.194;2023-04-08T03:17:13;96485.88;;;6.71;89.90
69411;BME280;56604;48.652;9.194;2023-04-08T03:19:39;96489.97;;;6.67;90.22
69411;BME280;56604;48.652;9.194;2023-04-08T03:22:04;96486.91;;;6.70;90.47
69411;BME280;56604;48.652;9.194;2023-04-08T03:24:30;96490.53;;;6.69;90.25
69411;BME280;56604;48.652;9.194;2023-04-08T03:26:55;96489.75;;;6.69;90.16
69411;BME280;56604;48.652;9.194;2023-04-08T03:29:20;96490.97;;;6.66;90.38
69411;BME280;56604;48.652;9.194;2023-04-08T03:31:46;96488.94;;;6.68;89.87
69411;BME280;56604;48.652;9.194;2023-04-08T03:34:11;96490.91;;;6.73;90.27
69411;BME280;56604;48.652;9.194;2023-04-08T03:36:36;96486.91;;;6.70;89.41
69411;BME280;56604;48.652;9.194;2023-04-08T03:39:02;96489.16;;;6.67;89.44
69411;BME280;56604;48.652;9.194;2023-04-08T03:41:28;96490.47;;;6.58;89.50
69411;BME280;56604;48.652;9.194;2023-04-08T03:43:53;96490.59;;;6.63;89.76
69411;BME280;56604;48.652;9.194;2023-04-08T03:46:18;96488.81;;;6.63;89.97
69411;BME280;56604;48.652;9.194;2023-04-08T03:48:44;96497.19;;;6.65;89.11
69411;BME280;56604;48.652;9.194;2023-04-08T03:51:10;96494.03;;;6.63;89.12
69411;BME280;56604;48.652;9.194;2023-04-08T03:53:35;96496.66;;;6.63;89.31
69411;BME280;56604;48.652;9.194;2023-04-08T03:56:00;96493.38;;;6.68;88.67
69411;BME280;56604;48.652;9.194;2023-04-08T03:58:27;96496.41;;;6.65;88.80
69411;BME280;56604;48.652;9.194;2023-04-08T04:00:53;96493.88;;;6.58;88.64
69411;BME280;56604;48.652;9.194;2023-04-08T04:03:18;96493.00;;;6.64;88.56
69411;BME280;56604;48.652;9.194;2023-04-08T04:05:43;96489.97;;;6.67;88.77
69411;BME280;56604;48.652;9.194;2023-04-08T04:08:09;96494.03;;;6.63;88.84
69411;BME280;56604;48.652;9.194;2023-04-08T04:10:34;96494.59;;;6.65;88.40
69411;BME280;56604;48.652;9.194;2023-04-08T04:12:59;96490.59;;;6.63;88.39
69411;BME280;56604;48.652;9.194;2023-04-08T04:15:25;96500.25;;;6.62;88.31
69411;BME280;56604;48.652;9.194;2023-04-08T04:17:50;96497.06;;;6.60;88.25
69411;BME280;56604;48.652;9.194;2023-04-08T04:20:16;96495.69;;;6.58;88.45
69411;BME280;56604;48.652;9.194;2023-04-08T04:22:42;96495.81;;;6.63;88.59
69411;BME280;56604;48.652;9.194;2023-04-08T04:25:07;96493.78;;;6.65;88.26
69411;BME280;56604;48.652;9.194;2023-04-08T04:27:33;96491.25;;;6.58;88.41
69411;BME280;56604;48.652;9.194;2023-04-08T04:29:59;96490.25;;;6.59;88.17
69411;BME280;56604;48.652;9.194;2023-04-08T04:32:25;96501.28;;;6.61;88.21
69411;BME280;56604;48.652;9.194;2023-04-08T04:34:50;96496.34;;;6.53;88.17
69411;BME280;56604;48.652;9.194;2023-04-08T04:37:15;96495.47;;;6.59;88.43
69411;BME280;56604;48.652;9.194;2023-04-08T04:39:41;96506.94;;;6.58;88.36
69411;BME280;56604;48.652;9.194;2023-04-08T04:42:06;96499.25;;;6.63;88.33
69411;BME280;56604;48.652;9.194;2023-04-08T04:44:31;96507.50;;;6.60;87.96
69411;BME280;56604;48.652;9.194;2023-04-08T04:46:57;96499.31;;;6.57;88.44
69411;BME280;56604;48.652;9.194;2023-04-08T04:49:22;96505.75;;;6.54;87.98
69411;BME280;56604;48.652;9.194;2023-04-08T04:51:47;96505.19;;;6.52;88.09
69411;BME280;56604;48.652;9.194;2023-04-08T04:54:13;96514.78;;;6.58;88.46
69411;BME280;56604;48.652;9.194;2023-04-08T04:56:38;96508.53;;;6.59;87.76
69411;BME280;56604;48.652;9.194;2023-04-08T04:59:04;96523.16;;;6.60;87.93
69411;BME280;56604;48.652;9.194;2023-04-08T05:01:29;96520.78;;;6.59;88.36
69411;BME280;56604;48.652;9.194;2023-04-08T05:03:54;96525.66;;;6.55;88.15
69411;BME280;56604;48.652;9.194;2023-04-08T05:06:22;96527.84;;;6.58;88.10
69411;BME280;56604;48.652;9.194;2023-04-08T05:08:47;96533.22;;;6.63;88.75
69411;BME280;56604;48.652;9.194;2023-04-08T05:11:12;96532.34;;;6.69;88.63
69411;BME280;56604;48.652;9.194;2023-04-08T05:13:38;96533.13;;;6.70;88.41
69411;BME280;56604;48.652;9.194;2023-04-08T05:16:03;96531.91;;;6.72;88.63
69411;BME280;56604;48.652;9.194;2023-04-08T05:18:28;96527.13;;;6.69;88.13
69411;BME280;56604;48.652;9.194;2023-04-08T05:20:54;96533.94;;;6.70;88.23
69411;BME280;56604;48.652;9.194;2023-04-08T05:23:19;96525.50;;;6.68;89.11
69411;BME280;56604;48.652;9.194;2023-04-08T05:25:44;96523.75;;;6.62;89.01
69411;BME280;56604;48.652;9.194;2023-04-08T05:28:10;96529.44;;;6.78;88.76
69411;BME280;56604;48.652;9.194;2023-04-08T05:30:35;96530.53;;;6.88;88.42
69411;BME280;56604;48.652;9.194;2023-04-08T05:33:00;96534.69;;;6.78;88.42
69411;BME280;56604;48.652;9.194;2023-04-08T05:35:27;96530.31;;;6.90;88.28
69411;BME280;56604;48.652;9.194;2023-04-08T05:37:52;96538.59;;;6.87;87.67
69411;BME280;56604;48.652;9.194;2023-04-08T05:40:17;96532.56;;;6.86;87.90
69411;BME280;56604;48.652;9.194;2023-04-08T05:42:42;96532.34;;;6.88;87.78
69411;BME280;56604;48.652;9.194;2023-04-08T05:45:08;96535.31;;;6.91;88.06
69411;BME280;56604;48.652;9.194;2023-04-08T05:47:34;96543.38;;;6.90;87.10
69411;BME280;56604;48.652;9.194;2023-04-08T05:49:59;96545.13;;;6.96;86.78
69411;BME280;56604;48.652;9.194;2023-04-08T05:52:24;96538.44;;;7.00;86.55
69411;BME280;56604;48.652;9.194;2023-04-08T05:54:50;96553.09;;;6.83;87.47
69411;BME280;56604;48.652;9.194;2023-04-08T05:57:15;96552.88;;;7.03;87.09
69411;BME280;56604;48.652;9.194;2023-04-08T05:59:41;96559.28;;;7.07;86.45
69411;BME280;56604;48.652;9.194;2023-04-08T06:02:06;96555.69;;;7.19;86.08
69411;BME280;56604;48.652;9.194;2023-04-08T06:04:31;96560.00;;;7.14;86.01
69411;BME280;56604;48.652;9.194;2023-04-08T06:06:57;96568.94;;;7.06;86.74
69411;BME280;56604;48.652;9.194;2023-04-08T06:09:24;96574.72;;;7.08;86.39
69411;BME280;56604;48.652;9.194;2023-04-08T06:11:50;96561.59;;;7.15;86.57
69411;BME280;56604;48.652;9.194;2023-04-08T06:14:15;96575.47;;;7.15;85.78
69411;BME280;56604;48.652;9.194;2023-04-08T06:16:41;96575.00;;;7.00;86.21
69411;BME280;56604;48.652;9.194;2023-04-08T06:19:06;96581.63;;;7.03;86.88
69411;BME280;56604;48.652;9.194;2023-04-08T06:21:31;96575.75;;;7.07;86.03
69411;BME280;56604;48.652;9.194;2023-04-08T06:23:56;96578.56;;;7.06;86.96
69411;BME280;56604;48.652;9.194;2023-04-08T06:26:22;96582.13;;;7.11;86.98
69411;BME280;56604;48.652;9.194;2023-04-08T06:28:47;96576.19;;;7.04;86.59
69411;BME280;56604;48.652;9.194;2023-04-08T06:31:12;96585.19;;;7.08;86.80
69411;BME280;56604;48.652;9.194;2023-04-08T06:33:38;96587.00;;;7.08;87.05
69411;BME280;56604;48.652;9.194;2023-04-08T06:36:04;96585.34;;;7.13;85.91
69411;BME280;56604;48.652;9.194;2023-04-08T06:38:29;96583.75;;;7.12;86.98
69411;BME280;56604;48.652;9.194;2023-04-08T06:41:00;96585.69;;;7.17;86.27
69411;BME280;56604;48.652;9.194;2023-04-08T06:43:25;96587.50;;;7.16;86.34
69411;BME280;56604;48.652;9.194;2023-04-08T06:45:51;96591.34;;;7.14;86.34
69411;BME280;56604;48.652;9.194;2023-04-08T06:48:17;96594.22;;;7.12;87.19
69411;BME280;56604;48.652;9.194;2023-04-08T06:50:42;96598.25;;;7.08;87.35
69411;BME280;56604;48.652;9.194;2023-04-08T06:53:08;96591.75;;;7.17;86.36
69411;BME280;56604;48.652;9.194;2023-04-08T06:55:33;96593.03;;;7.27;86.41
69411;BME280;56604;48.652;9.194;2023-04-08T06:57:58;96591.13;;;7.34;86.31
69411;BME280;56604;48.652;9.194;2023-04-08T07:00:26;96593.75;;;7.52;85.90
69411;BME280;56604;48.652;9.194;2023-04-08T07:02:51;96593.41;;;7.49;85.00
69411;BME280;56604;48.652;9.194;2023-04-08T07:05:16;96603.53;;;7.57;85.27
69411;BME280;56604;48.652;9.194;2023-04-08T07:07:42;96595.63;;;7.63;85.26
69411;BME280;56604;48.652;9.194;2023-04-08T07:10:07;96591.63;;;7.61;84.52
69411;BME280;56604;48.652;9.194;2023-04-08T07:12:33;96603.38;;;7.70;83.73
69411;BME280;56604;48.652;9.194;2023-04-08T07:14:58;96603.59;;;7.69;84.21
69411;BME280;56604;48.652;9.194;2023-04-08T07:17:23;96606.72;;;7.59;84.27
69411;BME280;56604;48.652;9.194;2023-04-08T07:19:49;96615.38;;;7.59;84.39
69411;BME280;56604;48.652;9.194;2023-04-08T07:22:14;96605.94;;;7.58;84.13
69411;BME280;56604;48.652;9.194;2023-04-08T07:24:40;96609.41;;;7.71;84.35
69411;BME280;56604;48.652;9.194;2023-04-08T07:27:07;96613.25;;;7.98;82.90
69411;BME280;56604;48.652;9.194;2023-04-08T07:29:33;96609.63;;;7.99;83.78
69411;BME280;56604;48.652;9.194;2023-04-08T07:31:58;96621.72;;;8.12;82.29
69411;BME280;56604;48.652;9.194;2023-04-08T07:34:23;96620.34;;;8.09;82.72
69411;BME280;56604;48.652;9.194;2023-04-08T07:36:49;96619.22;;;8.05;82.53
69411;BME280;56604;48.652;9.194;2023-04-08T07:39:14;96627.72;;;8.01;82.40
69411;BME280;56604;48.652;9.194;2023-04-08T07:41:40;96628.88;;;8.05;82.24
69411;BME280;56604;48.652;9.194;2023-04-08T07:44:05;96629.56;;;8.00;81.55
69411;BME280;56604;48.652;9.194;2023-04-08T07:46:35;96629.25;;;7.78;82.71
69411;BME280;56604;48.652;9.194;2023-04-08T07:49:01;96634.63;;;7.65;84.05
69411;BME280;56604;48.652;9.194;2023-04-08T07:51:26;96631.66;;;7.80;83.25
69411;BME280;56604;48.652;9.194;2023-04-08T07:53:51;96634.66;;;7.95;83.25
69411;BME280;56604;48.652;9.194;2023-04-08T07:56:17;96629.41;;;7.95;82.99
69411;BME280;56604;48.652;9.194;2023-04-08T07:58:43;96629.59;;;8.12;82.08
69411;BME280;56604;48.652;9.194;2023-04-08T08:03:40;96625.63;;;8.21;81.33
69411;BME280;56604;48.652;9.194;2023-04-08T08:06:06;96626.88;;;8.61;81.37
69411;BME280;56604;48.652;9.194;2023-04-08T08:08:31;96631.66;;;8.75;80.25
69411;BME280;56604;48.652;9.194;2023-04-08T08:10:57;96626.09;;;8.95;78.69
69411;BME280;56604;48.652;9.194;2023-04-08T08:13:22;96628.56;;;9.02;78.08
69411;BME280;56604;48.652;9.194;2023-04-08T08:15:51;96628.16;;;9.05;77.80
69411;BME280;56604;48.652;9.194;2023-04-08T08:18:17;96624.44;;;9.30;77.38
69411;BME280;56604;48.652;9.194;2023-04-08T08:20:42;96636.78;;;9.17;76.71
69411;BME280;56604;48.652;9.194;2023-04-08T08:23:08;96626.50;;;9.28;74.40
69411;BME280;56604;48.652;9.194;2023-04-08T08:25:33;96633.91;;;9.19;75.17
69411;BME280;56604;48.652;9.194;2023-04-08T08:27:58;96632.50;;;9.92;73.82
69411;BME280;56604;48.652;9.194;2023-04-08T08:30:23;96631.13;;;9.89;73.64
69411;BME280;56604;48.652;9.194;2023-04-08T08:32:50;96637.16;;;10.02;72.57
69411;BME280;56604;48.652;9.194;2023-04-08T08:35:16;96644.72;;;10.15;72.04
69411;BME280;56604;48.652;9.194;2023-04-08T08:37:41;96641.78;;;10.11;71.69
69411;BME280;56604;48.652;9.194;2023-04-08T08:40:07;96651.44;;;9.94;72.27
69411;BME280;56604;48.652;9.194;2023-04-08T08:42:33;96650.44;;;9.83;72.10
69411;BME280;56604;48.652;9.194;2023-04-08T08:45:01;96655.44;;;9.56;72.52
69411;BME280;56604;48.652;9.194;2023-04-08T08:47:27;96659.16;;;9.72;74.04
69411;BME280;56604;48.652;9.194;2023-04-08T08:49:52;96655.69;;;9.83;72.33
69411;BME280;56604;48.652;9.194;2023-04-08T08:52:18;96653.69;;;9.62;73.31
69411;BME280;56604;48.652;9.194;2023-04-08T08:54:44;96660.38;;;9.41;74.80
69411;BME280;56604;48.652;9.194;2023-04-08T08:57:19;96658.44;;;9.88;72.61
69411;BME280;56604;48.652;9.194;2023-04-08T08:59:47;96666.94;;;9.96;71.38
69411;BME280;56604;48.652;9.194;2023-04-08T09:02:27;96662.69;;;10.35;70.13
69411;BME280;56604;48.652;9.194;2023-04-08T09:05:01;96659.94;;;10.42;69.44
69411;BME280;56604;48.652;9.194;2023-04-08T09:07:28;96664.25;;;10.48;69.98
69411;BME280;56604;48.652;9.194;2023-04-08T09:09:55;96672.91;;;10.31;69.31
69411;BME280;56604;48.652;9.194;2023-04-08T09:12:22;96672.66;;;10.33;68.37
69411;BME280;56604;48.652;9.194;2023-04-08T09:14:48;96666.97;;;10.87;67.07
69411;BME280;56604;48.652;9.194;2023-04-08T09:17:13;96665.16;;;10.70;65.78
69411;BME280;56604;48.652;9.194;2023-04-08T09:19:39;96664.56;;;11.41;64.81
69411;BME280;56604;48.652;9.194;2023-04-08T09:22:09;96661.41;;;11.83;62.90
69411;BME280;56604;48.652;9.194;2023-04-08T09:24:35;96672.47;;;11.41;63.48
69411;BME280;56604;48.652;9.194;2023-04-08T09:27:05;96660.53;;;11.77;63.60
69411;BME280;56604;48.652;9.194;2023-04-08T09:29:30;96674.31;;;11.40;64.13
69411;BME280;56604;48.652;9.194;2023-04-08T09:32:00;96670.97;;;11.89;62.31
69411;BME280;56604;48.652;9.194;2023-04-08T09:34:26;96669.03;;;12.01;62.61
69411;BME280;56604;48.652;9.194;2023-04-08T09:36:53;96664.34;;;12.08;60.57
69411;BME280;56604;48.652;9.194;2023-04-08T09:39:19;96674.59;;;12.32;59.23
69411;BME280;56604;48.652;9.194;2023-04-08T09:41:47;96667.72;;;11.82;58.38
69411;BME280;56604;48.652;9.194;2023-04-08T09:44:14;96670.13;;;12.05;60.92
69411;BME280;56604;48.652;9.194;2023-04-08T09:49:25;96661.16;;;12.93;53.86
69411;BME280;56604;48.652;9.194;2023-04-08T09:52:10;96664.25;;;12.85;57.20
69411;BME280;56604;48.652;9.194;2023-04-08T10:00:21;96653.31;;;13.50;56.58
69411;BME280;56604;48.652;9.194;2023-04-08T10:05:30;96668.22;;;12.87;54.31
69411;BME280;56604;48.652;9.194;2023-04-08T10:07:55;96666.06;;;12.79;56.25
69411;BME280;56604;48.652;9.194;2023-04-08T10:10:22;96670.50;;;12.46;54.44
69411;BME280;56604;48.652;9.194;2023-04-08T10:12:48;96670.41;;;12.63;54.37
69411;BME280;56604;48.652;9.194;2023-04-08T10:15:28;96670.28;;;13.17;53.18
69411;BME280;56604;48.652;9.194;2023-04-08T10:17:55;96669.59;;;13.27;54.92
69411;BME280;56604;48.652;9.194;2023-04-08T10:22:59;96667.53;;;12.65;53.08
69411;BME280;56604;48.652;9.194;2023-04-08T10:25:34;96662.56;;;12.41;52.46
69411;BME280;56604;48.652;9.194;2023-04-08T10:31:04;96664.38;;;13.42;51.26
69411;BME280;56604;48.652;9.194;2023-04-08T10:33:32;96657.97;;;13.28;51.52
69411;BME280;56604;48.652;9.194;2023-04-08T10:36:06;96658.44;;;13.25;50.25
69411;BME280;56604;48.652;9.194;2023-04-08T10:38:36;96662.63;;;13.16;50.12
69411;BME280;56604;48.652;9.194;2023-04-08T10:41:02;96666.91;;;12.57;50.15
69411;BME280;56604;48.652;9.194;2023-04-08T10:43:35;96668.88;;;12.67;50.41
69411;BME280;56604;48.652;9.194;2023-04-08T10:46:02;96667.94;;;12.24;52.93
69411;BME280;56604;48.652;9.194;2023-04-08T10:48:27;96672.41;;;12.24;51.91
69411;BME280;56604;48.652;9.194;2023-04-08T10:50:57;96663.47;;;12.25;50.93
69411;BME280;56604;48.652;9.194;2023-04-08T10:53:37;96670.81;;;11.35;53.56
69411;BME280;56604;48.652;9.194;2023-04-08T10:56:07;96673.72;;;11.16;54.12
69411;BME280;56604;48.652;9.194;2023-04-08T10:58:34;96681.53;;;11.11;55.04
69411;BME280;56604;48.652;9.194;2023-04-08T11:01:06;96684.56;;;10.69;55.99
69411;BME280;56604;48.652;9.194;2023-04-08T11:03:33;96679.69;;;10.44;56.95
69411;BME280;56604;48.652;9.194;2023-04-08T11:06:00;96679.22;;;10.47;57.54
69411;BME280;56604;48.652;9.194;2023-04-08T11:08:31;96672.38;;;10.63;57.62
69411;BME280;56604;48.652;9.194;2023-04-08T11:10:57;96677.22;;;10.38;56.76
69411;BME280;56604;48.652;9.194;2023-04-08T11:13:25;96673.41;;;10.45;54.12
69411;BME280;56604;48.652;9.194;2023-04-08T11:15:51;96676.34;;;10.49;54.84
69411;BME280;56604;48.652;9.194;2023-04-08T11:18:16;96680.44;;;10.73;55.10
69411;BME280;56604;48.652;9.194;2023-04-08T11:20:43;96677.41;;;10.48;55.05
69411;BME280;56604;48.652;9.194;2023-04-08T11:23:13;96681.66;;;10.37;53.96
69411;BME280;56604;48.652;9.194;2023-04-08T11:25:40;96676.44;;;10.25;55.31
69411;BME280;56604;48.652;9.194;2023-04-08T11:28:06;96678.41;;;10.47;55.44
69411;BME280;56604;48.652;9.194;2023-04-08T11:30:31;96674.13;;;10.74;55.72
69411;BME280;56604;48.652;9.194;2023-04-08T11:32:57;96678.25;;;10.37;54.69
69411;BME280;56604;48.652;9.194;2023-04-08T11:35:22;96676.81;;;10.46;56.07
69411;BME280;56604;48.652;9.194;2023-04-08T11:37:48;96680.41;;;10.40;55.51
69411;BME280;56604;48.652;9.194;2023-04-08T11:40:19;96668.63;;;10.42;54.38
69411;BME280;56604;48.652;9.194;2023-04-08T11:42:44;96670.88;;;10.50;55.62
69411;BME280;56604;48.652;9.194;2023-04-08T11:45:12;96678.91;;;10.77;53.63
69411;BME280;56604;48.652;9.194;2023-04-08T11:47:38;96667.44;;;10.67;53.78
69411;BME280;56604;48.652;9.194;2023-04-08T11:50:04;96678.97;;;10.49;54.30
69411;BME280;56604;48.652;9.194;2023-04-08T11:52:46;96668.66;;;10.59;54.46
69411;BME280;56604;48.652;9.194;2023-04-08T11:55:22;96671.41;;;10.69;52.94
69411;BME280;56604;48.652;9.194;2023-04-08T11:57:47;96670.03;;;10.50;54.32
69411;BME280;56604;48.652;9.194;2023-04-08T12:00:13;96674.34;;;10.39;52.55
69411;BME280;56604;48.652;9.194;2023-04-08T12:02:39;96670.91;;;10.39;53.84
69411;BME280;56604;48.652;9.194;2023-04-08T12:05:04;96674.66;;;10.43;53.85
69411;BME280;56604;48.652;9.194;2023-04-08T12:07:30;96669.00;;;10.34;53.98
69411;BME280;56604;48.652;9.194;2023-04-08T12:09:56;96674.72;;;10.31;53.87
69411;BME280;56604;48.652;9.194;2023-04-08T12:12:21;96679.25;;;10.35;54.75
69411;BME280;56604;48.652;9.194;2023-04-08T12:14:47;96666.00;;;10.59;54.96
69411;BME280;56604;48.652;9.194;2023-04-08T12:17:12;96669.66;;;10.92;54.46
69411;BME280;56604;48.652;9.194;2023-04-08T12:19:37;96669.81;;;11.19;53.83
69411;BME280;56604;48.652;9.194;2023-04-08T12:22:06;96674.03;;;11.20;54.25
69411;BME280;56604;48.652;9.194;2023-04-08T12:24:31;96673.25;;;11.19;52.29
69411;BME280;56604;48.652;9.194;2023-04-08T12:26:57;96674.66;;;11.27;53.26
69411;BME280;56604;48.652;9.194;2023-04-08T12:29:22;96670.13;;;11.61;53.37
69411;BME280;56604;48.652;9.194;2023-04-08T12:31:47;96671.09;;;11.38;53.53
69411;BME280;56604;48.652;9.194;2023-04-08T12:34:12;96680.88;;;11.21;53.51
69411;BME280;56604;48.652;9.194;2023-04-08T12:36:38;96681.94;;;11.03;55.02
69411;BME280;56604;48.652;9.194;2023-04-08T12:39:03;96679.31;;;11.03;54.14
69411;BME280;56604;48.652;9.194;2023-04-08T12:41:28;96678.03;;;10.89;53.78
69411;BME280;56604;48.652;9.194;2023-04-08T12:43:54;96671.19;;;10.54;56.27
69411;BME280;56604;48.652;9.194;2023-04-08T12:46:19;96679.63;;;10.56;55.92
69411;BME280;56604;48.652;9.194;2023-04-08T12:48:44;96680.59;;;10.84;55.92
69411;BME280;56604;48.652;9.194;2023-04-08T12:51:10;96675.81;;;10.64;54.83
69411;BME280;56604;48.652;9.194;2023-04-08T12:53:36;96673.25;;;10.86;54.82
69411;BME280;56604;48.652;9.194;2023-04-08T12:56:01;96666.72;;;11.05;54.00
69411;BME280;56604;48.652;9.194;2023-04-08T12:58:26;96668.88;;;11.08;53.43
69411;BME280;56604;48.652;9.194;2023-04-08T13:00:52;96679.47;;;10.96;53.87
69411;BME280;56604;48.652;9.194;2023-04-08T13:03:17;96672.59;;;10.78;55.28
69411;BME280;56604;48.652;9.194;2023-04-08T13:05:43;96676.47;;;10.88;54.49
69411;BME280;56604;48.652;9.194;2023-04-08T13:08:09;96674.22;;;10.63;56.85
69411;BME280;56604;48.652;9.194;2023-04-08T13:10:34;96675.72;;;10.58;57.05
69411;BME280;56604;48.652;9.194;2023-04-08T13:13:00;96678.69;;;10.62;56.40
69411;BME280;56604;48.652;9.194;2023-04-08T13:15:25;96676.34;;;10.20;56.50
69411;BME280;56604;48.652;9.194;2023-04-08T13:17:51;96675.53;;;10.31;58.19
69411;BME280;56604;48.652;9.194;2023-04-08T13:20:16;96671.56;;;10.46;56.70
69411;BME280;56604;48.652;9.194;2023-04-08T13:22:41;96676.34;;;10.20;57.64
69411;BME280;56604;48.652;9.194;2023-04-08T13:25:07;96680.38;;;10.11;58.00